sensor_id;sensor_type;location;lat;lon;timestamp;P1;durP1;ratioP1;P2;durP2;ratioP2
20908;SDS011;10614;53.198;6.570;2022-10-17T00:00:27;5.20;;;2.42;;
20908;SDS011;10614;53.198;6.570;2022-10-17T00:02:29;4.47;;;1.92;;
20908;SDS011;10614;53.198;6.570;2022-10-17T00:04:30;3.03;;;1.60;;
20908;SDS011;10614;53.198;6.570;2022-10-17T00:06:33;3.50;;;1.95;;
20908;SDS011;10614;53.198;6.570;2022-10-17T00:08:35;3.17;;;1.90;;
20908;SDS011;10614;53.198;6.570;2022-10-17T00:10:37;4.22;;;1.85;;
20908;SDS011;10614;53.198;6.570;2022-10-17T00:12:39;3.75;;;1.77;;
20908;SDS011;10614;53.198;6.570;2022-10-17T00:14:41;5.03;;;1.60;;
20908;SDS011;10614;53.198;6.570;2022-10-17T00:16:42;2.75;;;1.50;;
20908;SDS011;10614;53.198;6.570;2022-10-17T00:18:44;4.78;;;1.83;;
20908;SDS011;10614;53.198;6.570;2022-10-17T00:20:46;4.13;;;1.80;;
20908;SDS011;10614;53.198;6.570;2022-10-17T00:22:49;3.83;;;1.83;;
20908;SDS011;10614;53.198;6.570;2022-10-17T00:24:50;6.13;;;1.90;;
20908;SDS011;10614;53.198;6.570;2022-10-17T00:26:52;5.80;;;1.88;;
20908;SDS011;10614;53.198;6.570;2022-10-17T00:28:54;7.57;;;2.30;;
20908;SDS011;10614;53.198;6.570;2022-10-17T00:30:56;3.95;;;1.90;;
20908;SDS011;10614;53.198;6.570;2022-10-17T00:32:58;5.88;;;2.42;;
20908;SDS011;10614;53.198;6.570;2022-10-17T00:35:00;6.53;;;2.50;;
20908;SDS011;10614;53.198;6.570;2022-10-17T00:37:02;6.80;;;2.80;;
20908;SDS011;10614;53.198;6.570;2022-10-17T00:39:04;5.10;;;3.05;;
20908;SDS011;10614;53.198;6.570;2022-10-17T00:41:07;5.47;;;3.33;;
20908;SDS011;10614;53.198;6.570;2022-10-17T00:43:10;6.38;;;2.88;;
20908;SDS011;10614;53.198;6.570;2022-10-17T00:45:19;8.48;;;3.47;;
20908;SDS011;10614;53.198;6.570;2022-10-17T00:47:23;5.35;;;3.15;;
20908;SDS011;10614;53.198;6.570;2022-10-17T00:49:26;6.70;;;3.08;;
20908;SDS011;10614;53.198;6.570;2022-10-17T00:51:33;7.82;;;2.95;;
20908;SDS011;10614;53.198;6.570;2022-10-17T00:53:36;5.40;;;2.92;;
20908;SDS011;10614;53.198;6.570;2022-10-17T00:55:43;5.70;;;2.88;;
20908;SDS011;10614;53.198;6.570;2022-10-17T00:57:48;6.28;;;3.00;;
20908;SDS011;10614;53.198;6.570;2022-10-17T00:59:52;6.43;;;3.10;;
20908;SDS011;10614;53.198;6.570;2022-10-17T01:01:59;5.82;;;3.28;;
20908;SDS011;10614;53.198;6.570;2022-10-17T01:04:02;5.80;;;2.85;;
20908;SDS011;10614;53.198;6.570;2022-10-17T01:06:04;5.95;;;3.47;;
20908;SDS011;10614;53.198;6.570;2022-10-17T01:08:05;6.03;;;2.63;;
20908;SDS011;10614;53.198;6.570;2022-10-17T01:10:08;5.63;;;2.72;;
20908;SDS011;10614;53.198;6.570;2022-10-17T01:12:14;7.32;;;2.95;;
20908;SDS011;10614;53.198;6.570;2022-10-17T01:14:22;5.45;;;2.53;;
20908;SDS011;10614;53.198;6.570;2022-10-17T01:16:32;5.47;;;2.80;;
20908;SDS011;10614;53.198;6.570;2022-10-17T01:18:42;4.38;;;2.50;;
20908;SDS011;10614;53.198;6.570;2022-10-17T01:21:02;5.47;;;3.15;;
20908;SDS011;10614;53.198;6.570;2022-10-17T01:23:17;6.07;;;2.60;;
20908;SDS011;10614;53.198;6.570;2022-10-17T01:25:33;5.57;;;2.53;;
20908;SDS011;10614;53.198;6.570;2022-10-17T01:27:55;6.10;;;2.40;;
20908;SDS011;10614;53.198;6.570;2022-10-17T01:32:48;4.30;;;1.95;;
20908;SDS011;10614;53.198;6.570;2022-10-17T01:34:56;5.20;;;2.17;;
20908;SDS011;10614;53.198;6.570;2022-10-17T01:37:03;5.13;;;2.10;;
20908;SDS011;10614;53.198;6.570;2022-10-17T01:39:13;4.78;;;1.90;;
20908;SDS011;10614;53.198;6.570;2022-10-17T01:41:23;4.60;;;2.30;;
20908;SDS011;10614;53.198;6.570;2022-10-17T01:43:33;5.45;;;2.00;;
20908;SDS011;10614;53.198;6.570;2022-10-17T01:45:39;5.03;;;2.50;;
20908;SDS011;10614;53.198;6.570;2022-10-17T01:47:48;4.40;;;2.15;;
20908;SDS011;10614;53.198;6.570;2022-10-17T01:49:53;7.45;;;2.15;;
20908;SDS011;10614;53.198;6.570;2022-10-17T01:51:59;4.55;;;2.13;;
20908;SDS011;10614;53.198;6.570;2022-10-17T01:54:06;5.47;;;2.17;;
20908;SDS011;10614;53.198;6.570;2022-10-17T01:56:12;6.75;;;2.75;;
20908;SDS011;10614;53.198;6.570;2022-10-17T01:58:18;2.80;;;1.90;;
20908;SDS011;10614;53.198;6.570;2022-10-17T02:00:24;3.50;;;2.35;;
20908;SDS011;10614;53.198;6.570;2022-10-17T02:02:27;3.63;;;2.08;;
20908;SDS011;10614;53.198;6.570;2022-10-17T02:04:32;3.92;;;2.03;;
20908;SDS011;10614;53.198;6.570;2022-10-17T02:06:35;6.28;;;2.40;;
20908;SDS011;10614;53.198;6.570;2022-10-17T02:08:40;3.58;;;1.80;;
20908;SDS011;10614;53.198;6.570;2022-10-17T02:10:43;3.92;;;2.08;;
20908;SDS011;10614;53.198;6.570;2022-10-17T02:12:52;3.83;;;1.90;;
20908;SDS011;10614;53.198;6.570;2022-10-17T02:14:59;3.63;;;1.90;;
20908;SDS011;10614;53.198;6.570;2022-10-17T02:17:12;4.60;;;2.15;;
20908;SDS011;10614;53.198;6.570;2022-10-17T02:19:25;3.72;;;2.30;;
20908;SDS011;10614;53.198;6.570;2022-10-17T02:21:40;5.25;;;2.13;;
20908;SDS011;10614;53.198;6.570;2022-10-17T02:23:52;4.22;;;2.40;;
20908;SDS011;10614;53.198;6.570;2022-10-17T02:26:01;6.35;;;2.40;;
20908;SDS011;10614;53.198;6.570;2022-10-17T02:28:09;4.60;;;2.38;;
20908;SDS011;10614;53.198;6.570;2022-10-17T02:30:22;4.32;;;1.88;;
20908;SDS011;10614;53.198;6.570;2022-10-17T02:32:32;3.70;;;1.85;;
20908;SDS011;10614;53.198;6.570;2022-10-17T02:34:41;4.40;;;2.35;;
20908;SDS011;10614;53.198;6.570;2022-10-17T02:36:48;5.22;;;2.53;;
20908;SDS011;10614;53.198;6.570;2022-10-17T02:38:52;4.82;;;2.55;;
20908;SDS011;10614;53.198;6.570;2022-10-17T02:40:55;5.43;;;2.28;;
20908;SDS011;10614;53.198;6.570;2022-10-17T02:42:57;3.78;;;2.30;;
20908;SDS011;10614;53.198;6.570;2022-10-17T02:45:00;2.90;;;1.90;;
20908;SDS011;10614;53.198;6.570;2022-10-17T02:47:06;6.00;;;2.42;;
20908;SDS011;10614;53.198;6.570;2022-10-17T02:49:14;4.32;;;2.10;;
20908;SDS011;10614;53.198;6.570;2022-10-17T02:51:22;4.95;;;2.33;;
20908;SDS011;10614;53.198;6.570;2022-10-17T02:53:29;3.97;;;2.40;;
20908;SDS011;10614;53.198;6.570;2022-10-17T02:55:38;3.80;;;2.15;;
20908;SDS011;10614;53.198;6.570;2022-10-17T02:57:44;5.25;;;2.40;;
20908;SDS011;10614;53.198;6.570;2022-10-17T02:59:48;4.85;;;2.55;;
20908;SDS011;10614;53.198;6.570;2022-10-17T03:01:51;3.88;;;2.30;;
20908;SDS011;10614;53.198;6.570;2022-10-17T03:04:03;6.18;;;2.53;;
20908;SDS011;10614;53.198;6.570;2022-10-17T03:06:05;5.10;;;2.80;;
20908;SDS011;10614;53.198;6.570;2022-10-17T03:08:08;5.25;;;2.38;;
20908;SDS011;10614;53.198;6.570;2022-10-17T03:10:10;4.47;;;2.22;;
20908;SDS011;10614;53.198;6.570;2022-10-17T03:12:12;3.95;;;2.30;;
20908;SDS011;10614;53.198;6.570;2022-10-17T03:14:14;5.97;;;2.90;;
20908;SDS011;10614;53.198;6.570;2022-10-17T03:16:15;6.93;;;3.55;;
20908;SDS011;10614;53.198;6.570;2022-10-17T03:18:17;6.53;;;2.50;;
20908;SDS011;10614;53.198;6.570;2022-10-17T03:20:19;5.72;;;3.03;;
20908;SDS011;10614;53.198;6.570;2022-10-17T03:22:20;8.02;;;3.10;;
20908;SDS011;10614;53.198;6.570;2022-10-17T03:24:24;3.88;;;2.20;;
20908;SDS011;10614;53.198;6.570;2022-10-17T03:26:25;6.40;;;3.20;;
20908;SDS011;10614;53.198;6.570;2022-10-17T03:28:28;5.68;;;3.30;;
20908;SDS011;10614;53.198;6.570;2022-10-17T03:30:30;4.10;;;2.90;;
20908;SDS011;10614;53.198;6.570;2022-10-17T03:32:32;5.07;;;2.50;;
20908;SDS011;10614;53.198;6.570;2022-10-17T03:34:34;5.00;;;2.72;;
20908;SDS011;10614;53.198;6.570;2022-10-17T03:36:36;4.30;;;2.55;;
20908;SDS011;10614;53.198;6.570;2022-10-17T03:38:38;7.60;;;3.50;;
20908;SDS011;10614;53.198;6.570;2022-10-17T03:40:41;5.40;;;2.90;;
20908;SDS011;10614;53.198;6.570;2022-10-17T03:42:43;5.38;;;3.25;;
20908;SDS011;10614;53.198;6.570;2022-10-17T03:44:44;7.45;;;3.38;;
20908;SDS011;10614;53.198;6.570;2022-10-17T03:46:46;9.45;;;3.58;;
20908;SDS011;10614;53.198;6.570;2022-10-17T03:48:47;7.03;;;3.63;;
20908;SDS011;10614;53.198;6.570;2022-10-17T03:50:49;7.43;;;3.40;;
20908;SDS011;10614;53.198;6.570;2022-10-17T03:52:51;5.43;;;3.10;;
20908;SDS011;10614;53.198;6.570;2022-10-17T03:54:52;4.30;;;2.90;;
20908;SDS011;10614;53.198;6.570;2022-10-17T03:56:55;4.82;;;2.88;;
20908;SDS011;10614;53.198;6.570;2022-10-17T03:58:57;8.38;;;3.78;;
20908;SDS011;10614;53.198;6.570;2022-10-17T04:01:02;5.05;;;2.97;;
20908;SDS011;10614;53.198;6.570;2022-10-17T04:03:04;5.95;;;3.50;;
20908;SDS011;10614;53.198;6.570;2022-10-17T04:05:06;6.65;;;3.97;;
20908;SDS011;10614;53.198;6.570;2022-10-17T04:07:08;6.95;;;2.97;;
20908;SDS011;10614;53.198;6.570;2022-10-17T04:09:09;6.18;;;3.60;;
20908;SDS011;10614;53.198;6.570;2022-10-17T04:11:13;4.53;;;2.78;;
20908;SDS011;10614;53.198;6.570;2022-10-17T04:13:17;6.60;;;3.30;;
20908;SDS011;10614;53.198;6.570;2022-10-17T04:15:19;5.45;;;3.05;;
20908;SDS011;10614;53.198;6.570;2022-10-17T04:17:21;5.03;;;2.63;;
20908;SDS011;10614;53.198;6.570;2022-10-17T04:19:22;4.88;;;2.83;;
20908;SDS011;10614;53.198;6.570;2022-10-17T04:21:25;8.40;;;5.07;;
20908;SDS011;10614;53.198;6.570;2022-10-17T04:23:28;6.97;;;3.38;;
20908;SDS011;10614;53.198;6.570;2022-10-17T04:25:30;5.97;;;3.22;;
20908;SDS011;10614;53.198;6.570;2022-10-17T04:27:31;5.25;;;3.22;;
20908;SDS011;10614;53.198;6.570;2022-10-17T04:29:34;6.63;;;3.38;;
20908;SDS011;10614;53.198;6.570;2022-10-17T04:31:36;5.60;;;3.60;;
20908;SDS011;10614;53.198;6.570;2022-10-17T04:33:38;6.18;;;3.53;;
20908;SDS011;10614;53.198;6.570;2022-10-17T04:35:40;6.78;;;3.58;;
20908;SDS011;10614;53.198;6.570;2022-10-17T04:37:41;5.97;;;3.55;;
20908;SDS011;10614;53.198;6.570;2022-10-17T04:39:43;9.95;;;3.67;;
20908;SDS011;10614;53.198;6.570;2022-10-17T04:41:44;7.72;;;3.75;;
20908;SDS011;10614;53.198;6.570;2022-10-17T04:43:46;8.45;;;4.38;;
20908;SDS011;10614;53.198;6.570;2022-10-17T04:45:49;6.45;;;3.45;;
20908;SDS011;10614;53.198;6.570;2022-10-17T04:47:51;6.18;;;3.63;;
20908;SDS011;10614;53.198;6.570;2022-10-17T04:49:53;6.30;;;3.83;;
20908;SDS011;10614;53.198;6.570;2022-10-17T04:51:54;7.55;;;3.55;;
20908;SDS011;10614;53.198;6.570;2022-10-17T04:53:56;6.78;;;3.85;;
20908;SDS011;10614;53.198;6.570;2022-10-17T04:55:58;6.07;;;3.63;;
20908;SDS011;10614;53.198;6.570;2022-10-17T04:57:59;7.10;;;3.97;;
20908;SDS011;10614;53.198;6.570;2022-10-17T05:00:01;7.05;;;3.83;;
20908;SDS011;10614;53.198;6.570;2022-10-17T05:02:05;7.70;;;3.75;;
20908;SDS011;10614;53.198;6.570;2022-10-17T05:04:07;8.25;;;4.25;;
20908;SDS011;10614;53.198;6.570;2022-10-17T05:06:09;7.10;;;4.18;;
20908;SDS011;10614;53.198;6.570;2022-10-17T05:08:12;8.80;;;4.25;;
20908;SDS011;10614;53.198;6.570;2022-10-17T05:10:14;5.72;;;3.45;;
20908;SDS011;10614;53.198;6.570;2022-10-17T05:12:16;7.90;;;4.00;;
20908;SDS011;10614;53.198;6.570;2022-10-17T05:14:17;7.70;;;4.13;;
20908;SDS011;10614;53.198;6.570;2022-10-17T05:16:19;7.05;;;4.05;;
20908;SDS011;10614;53.198;6.570;2022-10-17T05:18:22;7.40;;;4.05;;
20908;SDS011;10614;53.198;6.570;2022-10-17T05:20:24;8.27;;;4.55;;
20908;SDS011;10614;53.198;6.570;2022-10-17T05:22:26;8.68;;;4.38;;
20908;SDS011;10614;53.198;6.570;2022-10-17T05:24:28;7.88;;;4.38;;
20908;SDS011;10614;53.198;6.570;2022-10-17T05:26:30;8.48;;;3.97;;
20908;SDS011;10614;53.198;6.570;2022-10-17T05:28:32;6.82;;;4.18;;
20908;SDS011;10614;53.198;6.570;2022-10-17T05:30:34;8.40;;;4.70;;
20908;SDS011;10614;53.198;6.570;2022-10-17T05:32:36;9.52;;;4.47;;
20908;SDS011;10614;53.198;6.570;2022-10-17T05:34:39;7.10;;;4.15;;
20908;SDS011;10614;53.198;6.570;2022-10-17T05:36:41;7.05;;;4.18;;
20908;SDS011;10614;53.198;6.570;2022-10-17T05:38:43;6.80;;;4.03;;
20908;SDS011;10614;53.198;6.570;2022-10-17T05:40:48;6.97;;;4.18;;
20908;SDS011;10614;53.198;6.570;2022-10-17T05:42:50;7.07;;;4.13;;
20908;SDS011;10614;53.198;6.570;2022-10-17T05:44:52;7.63;;;4.40;;
20908;SDS011;10614;53.198;6.570;2022-10-17T05:46:53;7.68;;;4.45;;
20908;SDS011;10614;53.198;6.570;2022-10-17T05:48:55;7.53;;;4.30;;
20908;SDS011;10614;53.198;6.570;2022-10-17T05:50:59;8.13;;;4.32;;
20908;SDS011;10614;53.198;6.570;2022-10-17T05:53:01;8.45;;;4.93;;
20908;SDS011;10614;53.198;6.570;2022-10-17T05:55:03;8.43;;;4.30;;
20908;SDS011;10614;53.198;6.570;2022-10-17T05:57:05;7.15;;;4.15;;
20908;SDS011;10614;53.198;6.570;2022-10-17T05:59:07;9.00;;;4.85;;
20908;SDS011;10614;53.198;6.570;2022-10-17T06:01:09;8.20;;;4.80;;
20908;SDS011;10614;53.198;6.570;2022-10-17T06:03:12;8.43;;;4.90;;
20908;SDS011;10614;53.198;6.570;2022-10-17T06:05:14;8.30;;;4.68;;
20908;SDS011;10614;53.198;6.570;2022-10-17T06:07:17;8.40;;;4.55;;
20908;SDS011;10614;53.198;6.570;2022-10-17T06:09:18;7.70;;;4.57;;
20908;SDS011;10614;53.198;6.570;2022-10-17T06:11:20;8.40;;;4.85;;
20908;SDS011;10614;53.198;6.570;2022-10-17T06:13:22;7.90;;;4.80;;
20908;SDS011;10614;53.198;6.570;2022-10-17T06:15:23;9.40;;;5.35;;
20908;SDS011;10614;53.198;6.570;2022-10-17T06:17:25;9.35;;;5.47;;
20908;SDS011;10614;53.198;6.570;2022-10-17T06:19:27;8.85;;;5.63;;
20908;SDS011;10614;53.198;6.570;2022-10-17T06:21:29;9.23;;;4.95;;
20908;SDS011;10614;53.198;6.570;2022-10-17T06:23:36;9.13;;;5.78;;
20908;SDS011;10614;53.198;6.570;2022-10-17T06:25:38;9.10;;;5.10;;
20908;SDS011;10614;53.198;6.570;2022-10-17T06:27:40;10.75;;;5.05;;
20908;SDS011;10614;53.198;6.570;2022-10-17T06:29:42;10.98;;;5.32;;
20908;SDS011;10614;53.198;6.570;2022-10-17T06:31:44;9.10;;;5.18;;
20908;SDS011;10614;53.198;6.570;2022-10-17T06:33:46;9.77;;;5.05;;
20908;SDS011;10614;53.198;6.570;2022-10-17T06:35:51;9.02;;;5.22;;
20908;SDS011;10614;53.198;6.570;2022-10-17T06:37:53;10.18;;;5.03;;
20908;SDS011;10614;53.198;6.570;2022-10-17T06:39:56;9.35;;;5.20;;
20908;SDS011;10614;53.198;6.570;2022-10-17T06:41:58;10.90;;;5.95;;
20908;SDS011;10614;53.198;6.570;2022-10-17T06:44:00;7.93;;;4.88;;
20908;SDS011;10614;53.198;6.570;2022-10-17T06:46:07;9.20;;;5.40;;
20908;SDS011;10614;53.198;6.570;2022-10-17T06:48:09;10.27;;;5.75;;
20908;SDS011;10614;53.198;6.570;2022-10-17T06:50:11;10.07;;;5.32;;
20908;SDS011;10614;53.198;6.570;2022-10-17T06:52:12;11.13;;;5.53;;
20908;SDS011;10614;53.198;6.570;2022-10-17T06:54:16;8.95;;;5.30;;
20908;SDS011;10614;53.198;6.570;2022-10-17T06:56:19;10.27;;;5.43;;
20908;SDS011;10614;53.198;6.570;2022-10-17T06:58:20;12.27;;;5.32;;
20908;SDS011;10614;53.198;6.570;2022-10-17T07:00:22;9.13;;;5.03;;
20908;SDS011;10614;53.198;6.570;2022-10-17T07:02:25;7.88;;;5.03;;
20908;SDS011;10614;53.198;6.570;2022-10-17T07:04:27;9.32;;;4.93;;
20908;SDS011;10614;53.198;6.570;2022-10-17T07:06:29;9.35;;;5.53;;
20908;SDS011;10614;53.198;6.570;2022-10-17T07:08:31;9.20;;;5.07;;
20908;SDS011;10614;53.198;6.570;2022-10-17T07:10:32;10.90;;;5.88;;
20908;SDS011;10614;53.198;6.570;2022-10-17T07:12:38;10.20;;;5.75;;
20908;SDS011;10614;53.198;6.570;2022-10-17T07:14:40;11.10;;;5.70;;
20908;SDS011;10614;53.198;6.570;2022-10-17T07:16:41;11.50;;;5.50;;
20908;SDS011;10614;53.198;6.570;2022-10-17T07:18:47;9.05;;;5.07;;
20908;SDS011;10614;53.198;6.570;2022-10-17T07:22:53;9.48;;;5.35;;
20908;SDS011;10614;53.198;6.570;2022-10-17T07:24:55;9.85;;;5.57;;
20908;SDS011;10614;53.198;6.570;2022-10-17T07:26:56;9.52;;;5.32;;
20908;SDS011;10614;53.198;6.570;2022-10-17T07:28:59;11.70;;;6.15;;
20908;SDS011;10614;53.198;6.570;2022-10-17T07:31:02;8.57;;;5.20;;
20908;SDS011;10614;53.198;6.570;2022-10-17T07:33:05;9.43;;;5.80;;
20908;SDS011;10614;53.198;6.570;2022-10-17T07:35:07;11.85;;;5.55;;
20908;SDS011;10614;53.198;6.570;2022-10-17T07:37:09;9.70;;;5.35;;
20908;SDS011;10614;53.198;6.570;2022-10-17T07:39:10;9.55;;;5.57;;
20908;SDS011;10614;53.198;6.570;2022-10-17T07:41:12;10.27;;;5.05;;
20908;SDS011;10614;53.198;6.570;2022-10-17T07:43:14;11.60;;;5.55;;
20908;SDS011;10614;53.198;6.570;2022-10-17T07:45:17;10.65;;;5.75;;
20908;SDS011;10614;53.198;6.570;2022-10-17T07:47:19;9.98;;;5.38;;
20908;SDS011;10614;53.198;6.570;2022-10-17T07:49:20;9.55;;;5.57;;
20908;SDS011;10614;53.198;6.570;2022-10-17T07:51:22;8.88;;;5.00;;
20908;SDS011;10614;53.198;6.570;2022-10-17T07:53:24;10.00;;;5.35;;
20908;SDS011;10614;53.198;6.570;2022-10-17T07:55:25;13.02;;;5.70;;
20908;SDS011;10614;53.198;6.570;2022-10-17T07:57:27;10.05;;;5.60;;
20908;SDS011;10614;53.198;6.570;2022-10-17T07:59:29;8.38;;;5.13;;
20908;SDS011;10614;53.198;6.570;2022-10-17T08:01:32;9.57;;;5.43;;
20908;SDS011;10614;53.198;6.570;2022-10-17T08:03:33;12.02;;;5.30;;
20908;SDS011;10614;53.198;6.570;2022-10-17T08:05:35;9.38;;;5.47;;
20908;SDS011;10614;53.198;6.570;2022-10-17T08:07:37;9.27;;;5.03;;
20908;SDS011;10614;53.198;6.570;2022-10-17T08:09:39;9.35;;;5.40;;
20908;SDS011;10614;53.198;6.570;2022-10-17T08:11:41;8.93;;;5.05;;
20908;SDS011;10614;53.198;6.570;2022-10-17T08:13:43;11.68;;;5.00;;
20908;SDS011;10614;53.198;6.570;2022-10-17T08:15:47;9.75;;;5.50;;
20908;SDS011;10614;53.198;6.570;2022-10-17T08:17:50;10.60;;;5.45;;
20908;SDS011;10614;53.198;6.570;2022-10-17T08:19:54;9.57;;;5.60;;
20908;SDS011;10614;53.198;6.570;2022-10-17T08:21:56;9.73;;;5.43;;
20908;SDS011;10614;53.198;6.570;2022-10-17T08:23:58;9.40;;;5.13;;
20908;SDS011;10614;53.198;6.570;2022-10-17T08:26:02;9.68;;;5.28;;
20908;SDS011;10614;53.198;6.570;2022-10-17T08:28:05;8.95;;;4.88;;
20908;SDS011;10614;53.198;6.570;2022-10-17T08:30:07;10.43;;;5.47;;
20908;SDS011;10614;53.198;6.570;2022-10-17T08:32:10;10.35;;;5.93;;
20908;SDS011;10614;53.198;6.570;2022-10-17T08:34:13;7.30;;;4.50;;
20908;SDS011;10614;53.198;6.570;2022-10-17T08:36:16;7.55;;;4.70;;
20908;SDS011;10614;53.198;6.570;2022-10-17T08:38:18;9.05;;;5.35;;
20908;SDS011;10614;53.198;6.570;2022-10-17T08:40:21;9.60;;;4.93;;
20908;SDS011;10614;53.198;6.570;2022-10-17T08:42:29;7.93;;;4.88;;
20908;SDS011;10614;53.198;6.570;2022-10-17T08:44:45;8.20;;;4.97;;
20908;SDS011;10614;53.198;6.570;2022-10-17T08:46:54;9.18;;;4.93;;
20908;SDS011;10614;53.198;6.570;2022-10-17T08:49:00;8.30;;;4.53;;
20908;SDS011;10614;53.198;6.570;2022-10-17T08:51:08;9.00;;;4.90;;
20908;SDS011;10614;53.198;6.570;2022-10-17T08:53:15;9.25;;;4.80;;
20908;SDS011;10614;53.198;6.570;2022-10-17T08:55:23;9.63;;;5.10;;
20908;SDS011;10614;53.198;6.570;2022-10-17T08:57:29;9.18;;;4.40;;
20908;SDS011;10614;53.198;6.570;2022-10-17T08:59:31;9.77;;;5.47;;
20908;SDS011;10614;53.198;6.570;2022-10-17T09:01:35;8.93;;;4.78;;
20908;SDS011;10614;53.198;6.570;2022-10-17T09:03:46;7.28;;;4.40;;
20908;SDS011;10614;53.198;6.570;2022-10-17T09:06:02;8.55;;;5.10;;
20908;SDS011;10614;53.198;6.570;2022-10-17T09:08:26;9.55;;;5.47;;
20908;SDS011;10614;53.198;6.570;2022-10-17T09:10:37;10.32;;;5.53;;
20908;SDS011;10614;53.198;6.570;2022-10-17T09:12:51;10.35;;;5.72;;
20908;SDS011;10614;53.198;6.570;2022-10-17T09:17:37;10.48;;;5.45;;
20908;SDS011;10614;53.198;6.570;2022-10-17T09:19:51;10.27;;;5.80;;
20908;SDS011;10614;53.198;6.570;2022-10-17T09:22:02;9.73;;;5.25;;
20908;SDS011;10614;53.198;6.570;2022-10-17T09:24:08;11.10;;;5.38;;
20908;SDS011;10614;53.198;6.570;2022-10-17T09:26:16;9.30;;;5.32;;
20908;SDS011;10614;53.198;6.570;2022-10-17T09:28:18;12.05;;;6.18;;
20908;SDS011;10614;53.198;6.570;2022-10-17T09:30:29;9.35;;;5.97;;
20908;SDS011;10614;53.198;6.570;2022-10-17T09:32:35;10.25;;;5.53;;
20908;SDS011;10614;53.198;6.570;2022-10-17T09:34:38;10.90;;;5.68;;
20908;SDS011;10614;53.198;6.570;2022-10-17T09:36:40;14.55;;;6.63;;
20908;SDS011;10614;53.198;6.570;2022-10-17T09:38:47;15.05;;;6.15;;
20908;SDS011;10614;53.198;6.570;2022-10-17T09:40:53;12.50;;;6.57;;
20908;SDS011;10614;53.198;6.570;2022-10-17T09:42:56;12.77;;;6.10;;
20908;SDS011;10614;53.198;6.570;2022-10-17T09:45:02;11.43;;;6.05;;
20908;SDS011;10614;53.198;6.570;2022-10-17T09:47:17;11.48;;;6.38;;
20908;SDS011;10614;53.198;6.570;2022-10-17T09:49:27;10.65;;;5.60;;
20908;SDS011;10614;53.198;6.570;2022-10-17T09:51:32;12.45;;;6.55;;
20908;SDS011;10614;53.198;6.570;2022-10-17T09:53:35;11.70;;;6.78;;
20908;SDS011;10614;53.198;6.570;2022-10-17T09:55:40;11.73;;;6.03;;
20908;SDS011;10614;53.198;6.570;2022-10-17T09:57:51;13.43;;;7.07;;
20908;SDS011;10614;53.198;6.570;2022-10-17T09:59:55;12.93;;;6.72;;
20908;SDS011;10614;53.198;6.570;2022-10-17T10:02:06;12.30;;;6.97;;
20908;SDS011;10614;53.198;6.570;2022-10-17T10:04:09;12.30;;;6.38;;
20908;SDS011;10614;53.198;6.570;2022-10-17T10:06:13;11.05;;;6.10;;
20908;SDS011;10614;53.198;6.570;2022-10-17T10:08:16;10.30;;;6.55;;
20908;SDS011;10614;53.198;6.570;2022-10-17T10:10:23;10.93;;;6.32;;
20908;SDS011;10614;53.198;6.570;2022-10-17T10:12:29;14.07;;;7.00;;
20908;SDS011;10614;53.198;6.570;2022-10-17T10:14:32;12.30;;;6.03;;
20908;SDS011;10614;53.198;6.570;2022-10-17T10:16:46;10.50;;;5.73;;
20908;SDS011;10614;53.198;6.570;2022-10-17T10:18:49;11.45;;;5.90;;
20908;SDS011;10614;53.198;6.570;2022-10-17T10:21:01;9.45;;;5.78;;
20908;SDS011;10614;53.198;6.570;2022-10-17T10:23:06;10.60;;;6.15;;
20908;SDS011;10614;53.198;6.570;2022-10-17T10:25:20;11.63;;;6.00;;
20908;SDS011;10614;53.198;6.570;2022-10-17T10:27:26;13.52;;;6.78;;
20908;SDS011;10614;53.198;6.570;2022-10-17T10:29:31;11.32;;;6.10;;
20908;SDS011;10614;53.198;6.570;2022-10-17T10:31:35;10.15;;;6.00;;
20908;SDS011;10614;53.198;6.570;2022-10-17T10:33:40;10.98;;;5.57;;
20908;SDS011;10614;53.198;6.570;2022-10-17T10:35:43;14.32;;;6.88;;
20908;SDS011;10614;53.198;6.570;2022-10-17T10:37:55;11.02;;;5.78;;
20908;SDS011;10614;53.198;6.570;2022-10-17T10:40:00;10.27;;;5.70;;
20908;SDS011;10614;53.198;6.570;2022-10-17T10:42:05;10.80;;;5.95;;
20908;SDS011;10614;53.198;6.570;2022-10-17T10:44:11;9.10;;;5.82;;
20908;SDS011;10614;53.198;6.570;2022-10-17T10:46:17;11.20;;;5.50;;
20908;SDS011;10614;53.198;6.570;2022-10-17T10:48:20;10.80;;;5.68;;
20908;SDS011;10614;53.198;6.570;2022-10-17T10:50:25;10.77;;;6.43;;
20908;SDS011;10614;53.198;6.570;2022-10-17T10:52:30;9.68;;;5.55;;
20908;SDS011;10614;53.198;6.570;2022-10-17T10:54:40;9.48;;;5.93;;
20908;SDS011;10614;53.198;6.570;2022-10-17T10:56:48;9.07;;;5.03;;
20908;SDS011;10614;53.198;6.570;2022-10-17T10:58:53;10.48;;;5.53;;
20908;SDS011;10614;53.198;6.570;2022-10-17T11:00:59;8.60;;;5.03;;
20908;SDS011;10614;53.198;6.570;2022-10-17T11:03:08;8.75;;;4.72;;
20908;SDS011;10614;53.198;6.570;2022-10-17T11:05:15;8.43;;;5.07;;
20908;SDS011;10614;53.198;6.570;2022-10-17T11:07:21;7.90;;;4.65;;
20908;SDS011;10614;53.198;6.570;2022-10-17T11:09:30;9.23;;;4.50;;
20908;SDS011;10614;53.198;6.570;2022-10-17T11:11:46;8.40;;;4.72;;
20908;SDS011;10614;53.198;6.570;2022-10-17T11:13:54;7.50;;;4.40;;
20908;SDS011;10614;53.198;6.570;2022-10-17T11:16:07;10.52;;;5.20;;
20908;SDS011;10614;53.198;6.570;2022-10-17T11:18:21;8.20;;;4.72;;
20908;SDS011;10614;53.198;6.570;2022-10-17T11:20:29;9.10;;;4.57;;
20908;SDS011;10614;53.198;6.570;2022-10-17T11:22:37;14.45;;;5.97;;
20908;SDS011;10614;53.198;6.570;2022-10-17T11:24:44;8.98;;;4.75;;
20908;SDS011;10614;53.198;6.570;2022-10-17T11:26:57;11.95;;;5.90;;
20908;SDS011;10614;53.198;6.570;2022-10-17T11:29:01;8.60;;;5.30;;
20908;SDS011;10614;53.198;6.570;2022-10-17T11:31:09;8.75;;;4.97;;
20908;SDS011;10614;53.198;6.570;2022-10-17T11:33:14;13.75;;;6.38;;
20908;SDS011;10614;53.198;6.570;2022-10-17T11:35:22;10.30;;;5.25;;
20908;SDS011;10614;53.198;6.570;2022-10-17T11:39:33;12.48;;;5.47;;
20908;SDS011;10614;53.198;6.570;2022-10-17T11:41:42;9.23;;;4.72;;
20908;SDS011;10614;53.198;6.570;2022-10-17T11:43:48;10.63;;;5.85;;
20908;SDS011;10614;53.198;6.570;2022-10-17T11:45:55;9.27;;;4.70;;
20908;SDS011;10614;53.198;6.570;2022-10-17T11:48:03;10.98;;;5.63;;
20908;SDS011;10614;53.198;6.570;2022-10-17T11:50:17;8.52;;;4.65;;
20908;SDS011;10614;53.198;6.570;2022-10-17T11:52:26;11.52;;;6.00;;
20908;SDS011;10614;53.198;6.570;2022-10-17T11:54:36;10.73;;;5.82;;
20908;SDS011;10614;53.198;6.570;2022-10-17T11:56:43;9.30;;;4.88;;
20908;SDS011;10614;53.198;6.570;2022-10-17T11:58:51;10.40;;;5.10;;
20908;SDS011;10614;53.198;6.570;2022-10-17T12:01:04;8.35;;;5.00;;
20908;SDS011;10614;53.198;6.570;2022-10-17T12:03:18;9.00;;;5.05;;
20908;SDS011;10614;53.198;6.570;2022-10-17T12:05:31;8.30;;;4.47;;
20908;SDS011;10614;53.198;6.570;2022-10-17T12:07:40;9.38;;;4.97;;
20908;SDS011;10614;53.198;6.570;2022-10-17T12:09:48;9.20;;;5.00;;
20908;SDS011;10614;53.198;6.570;2022-10-17T12:11:55;8.25;;;4.47;;
20908;SDS011;10614;53.198;6.570;2022-10-17T12:13:59;8.70;;;5.32;;
20908;SDS011;10614;53.198;6.570;2022-10-17T12:18:50;7.70;;;4.03;;
20908;SDS011;10614;53.198;6.570;2022-10-17T12:21:12;7.93;;;3.85;;
20908;SDS011;10614;53.198;6.570;2022-10-17T12:23:19;7.75;;;4.45;;
20908;SDS011;10614;53.198;6.570;2022-10-17T12:25:27;10.73;;;4.65;;
20908;SDS011;10614;53.198;6.570;2022-10-17T12:27:38;7.97;;;4.28;;
20908;SDS011;10614;53.198;6.570;2022-10-17T12:29:46;8.07;;;4.32;;
20908;SDS011;10614;53.198;6.570;2022-10-17T12:31:48;7.22;;;4.13;;
20908;SDS011;10614;53.198;6.570;2022-10-17T12:33:52;9.52;;;4.75;;
20908;SDS011;10614;53.198;6.570;2022-10-17T12:38:45;9.27;;;4.45;;
20908;SDS011;10614;53.198;6.570;2022-10-17T12:40:50;7.75;;;4.60;;
20908;SDS011;10614;53.198;6.570;2022-10-17T12:43:02;8.82;;;4.75;;
20908;SDS011;10614;53.198;6.570;2022-10-17T12:45:43;6.90;;;4.15;;